sensor_id;sensor_type;location;lat;lon;timestamp;pressure;altitude;pressure_sealevel;temperature;humidity
21236;BME280;10775;42.678;26.324;2023-09-19T00:02:04;99043.00;;;20.84;67.51
21236;BME280;10775;42.678;26.324;2023-09-19T00:04:34;99035.72;;;20.56;70.37
21236;BME280;10775;42.678;26.324;2023-09-19T00:06:59;99030.31;;;20.58;70.36
21236;BME280;10775;42.678;26.324;2023-09-19T00:09:28;99039.22;;;21.04;69.01
21236;BME280;10775;42.678;26.324;2023-09-19T00:11:55;99036.94;;;21.28;67.91
21236;BME280;10775;42.678;26.324;2023-09-19T00:14:20;99040.66;;;20.13;71.46
21236;BME280;10775;42.678;26.324;2023-09-19T00:16:49;99032.75;;;19.26;73.33
21236;BME280;10775;42.678;26.324;2023-09-19T00:19:15;99038.91;;;19.96;65.72
21236;BME280;10775;42.678;26.324;2023-09-19T00:21:41;99041.78;;;19.22;72.27
21236;BME280;10775;42.678;26.324;2023-09-19T00:24:07;99040.09;;;20.24;72.40
21236;BME280;10775;42.678;26.324;2023-09-19T00:26:34;99038.41;;;20.06;72.20
21236;BME280;10775;42.678;26.324;2023-09-19T00:29:00;99035.16;;;19.66;74.37
21236;BME280;10775;42.678;26.324;2023-09-19T00:31:33;99040.94;;;20.25;71.23
21236;BME280;10775;42.678;26.324;2023-09-19T00:33:59;99041.53;;;20.14;71.64
21236;BME280;10775;42.678;26.324;2023-09-19T00:36:29;99036.28;;;19.79;69.14
21236;BME280;10775;42.678;26.324;2023-09-19T00:38:54;99040.84;;;20.10;70.68
21236;BME280;10775;42.678;26.324;2023-09-19T00:41:20;99041.28;;;18.78;76.07
21236;BME280;10775;42.678;26.324;2023-09-19T00:43:46;99035.97;;;19.68;72.71
21236;BME280;10775;42.678;26.324;2023-09-19T00:46:16;99039.50;;;20.35;71.99
21236;BME280;10775;42.678;26.324;2023-09-19T00:48:42;99032.88;;;20.59;70.53
21236;BME280;10775;42.678;26.324;2023-09-19T00:51:11;99032.28;;;20.86;69.60
21236;BME280;10775;42.678;26.324;2023-09-19T00:53:39;99030.31;;;20.90;69.52
21236;BME280;10775;42.678;26.324;2023-09-19T00:56:05;99023.69;;;21.13;67.74
21236;BME280;10775;42.678;26.324;2023-09-19T00:58:32;99035.44;;;20.93;68.79
21236;BME280;10775;42.678;26.324;2023-09-19T01:00:59;99036.47;;;20.90;68.54
21236;BME280;10775;42.678;26.324;2023-09-19T01:03:24;99032.09;;;21.05;68.15
21236;BME280;10775;42.678;26.324;2023-09-19T01:05:50;99035.28;;;20.64;69.39
21236;BME280;10775;42.678;26.324;2023-09-19T01:08:15;99041.25;;;19.50;73.22
21236;BME280;10775;42.678;26.324;2023-09-19T01:10:59;99031.03;;;19.60;73.39
21236;BME280;10775;42.678;26.324;2023-09-19T01:13:36;99044.31;;;20.44;70.70
21236;BME280;10775;42.678;26.324;2023-09-19T01:21:57;99037.59;;;20.86;68.33
21236;BME280;10775;42.678;26.324;2023-09-19T01:24:54;99041.81;;;20.74;68.61
21236;BME280;10775;42.678;26.324;2023-09-19T01:30:35;99042.50;;;19.78;71.46
21236;BME280;10775;42.678;26.324;2023-09-19T01:33:03;99039.78;;;20.46;69.40
21236;BME280;10775;42.678;26.324;2023-09-19T01:35:31;99029.19;;;20.78;68.71
21236;BME280;10775;42.678;26.324;2023-09-19T01:37:58;99039.22;;;20.89;68.15
21236;BME280;10775;42.678;26.324;2023-09-19T01:40:24;99033.22;;;21.01;67.43
21236;BME280;10775;42.678;26.324;2023-09-19T01:43:17;99043.31;;;20.78;67.94
21236;BME280;10775;42.678;26.324;2023-09-19T01:51:07;99033.44;;;19.13;66.61
21236;BME280;10775;42.678;26.324;2023-09-19T01:56:08;99026.91;;;19.54;72.54
21236;BME280;10775;42.678;26.324;2023-09-19T01:58:39;99021.69;;;20.37;70.10
21236;BME280;10775;42.678;26.324;2023-09-19T02:01:11;99017.16;;;19.55;64.78
21236;BME280;10775;42.678;26.324;2023-09-19T02:03:39;99016.75;;;19.63;72.33
21236;BME280;10775;42.678;26.324;2023-09-19T02:06:05;99021.97;;;19.29;66.92
21236;BME280;10775;42.678;26.324;2023-09-19T02:08:36;99033.38;;;19.49;73.22
21236;BME280;10775;42.678;26.324;2023-09-19T02:11:02;99026.53;;;19.80;71.95
21236;BME280;10775;42.678;26.324;2023-09-19T02:13:27;99031.19;;;19.57;72.42
21236;BME280;10775;42.678;26.324;2023-09-19T02:15:53;99034.59;;;20.27;70.25
21236;BME280;10775;42.678;26.324;2023-09-19T02:18:19;99035.84;;;20.04;65.10
21236;BME280;10775;42.678;26.324;2023-09-19T02:20:45;99030.03;;;19.28;71.18
21236;BME280;10775;42.678;26.324;2023-09-19T02:23:12;99023.75;;;18.56;71.29
21236;BME280;10775;42.678;26.324;2023-09-19T02:25:38;99024.41;;;17.21;71.29
21236;BME280;10775;42.678;26.324;2023-09-19T02:28:06;99021.59;;;18.83;77.22
21236;BME280;10775;42.678;26.324;2023-09-19T02:30:32;99014.69;;;20.36;69.89
21236;BME280;10775;42.678;26.324;2023-09-19T02:32:58;99023.81;;;20.63;68.61
21236;BME280;10775;42.678;26.324;2023-09-19T02:35:26;99010.59;;;20.78;67.84
21236;BME280;10775;42.678;26.324;2023-09-19T02:37:53;99006.28;;;20.91;67.03
21236;BME280;10775;42.678;26.324;2023-09-19T02:40:18;99000.13;;;20.91;66.85
21236;BME280;10775;42.678;26.324;2023-09-19T02:42:46;99003.91;;;21.02;66.54
21236;BME280;10775;42.678;26.324;2023-09-19T02:45:12;99011.50;;;20.45;67.24
21236;BME280;10775;42.678;26.324;2023-09-19T02:47:40;99003.03;;;19.54;70.60
21236;BME280;10775;42.678;26.324;2023-09-19T02:50:05;99005.22;;;19.29;72.08
21236;BME280;10775;42.678;26.324;2023-09-19T02:52:31;99002.06;;;20.08;68.71
21236;BME280;10775;42.678;26.324;2023-09-19T02:54:56;98995.34;;;20.81;67.28
21236;BME280;10775;42.678;26.324;2023-09-19T02:57:22;98991.06;;;20.95;66.52
21236;BME280;10775;42.678;26.324;2023-09-19T02:59:49;98993.38;;;20.85;66.27
21236;BME280;10775;42.678;26.324;2023-09-19T03:02:15;98990.78;;;20.83;66.35
21236;BME280;10775;42.678;26.324;2023-09-19T03:04:41;98984.38;;;20.88;66.19
21236;BME280;10775;42.678;26.324;2023-09-19T03:07:06;98995.88;;;20.72;66.91
21236;BME280;10775;42.678;26.324;2023-09-19T03:09:32;98988.66;;;20.90;66.30
21236;BME280;10775;42.678;26.324;2023-09-19T03:11:57;98986.66;;;20.94;66.13
21236;BME280;10775;42.678;26.324;2023-09-19T03:14:24;98980.75;;;20.89;66.25
21236;BME280;10775;42.678;26.324;2023-09-19T03:16:50;98987.44;;;20.96;65.42
21236;BME280;10775;42.678;26.324;2023-09-19T03:19:15;98975.81;;;20.82;66.32
21236;BME280;10775;42.678;26.324;2023-09-19T03:21:41;98985.31;;;20.71;66.51
21236;BME280;10775;42.678;26.324;2023-09-19T03:24:06;98970.50;;;20.82;66.15
21236;BME280;10775;42.678;26.324;2023-09-19T03:26:32;98973.75;;;20.88;65.89
21236;BME280;10775;42.678;26.324;2023-09-19T03:28:58;98972.66;;;21.06;65.29
21236;BME280;10775;42.678;26.324;2023-09-19T03:31:24;98970.78;;;21.08;65.23
21236;BME280;10775;42.678;26.324;2023-09-19T03:33:49;98965.38;;;20.63;66.38
21236;BME280;10775;42.678;26.324;2023-09-19T03:36:14;98966.41;;;20.77;66.25
21236;BME280;10775;42.678;26.324;2023-09-19T03:38:40;98966.66;;;20.72;66.00
21236;BME280;10775;42.678;26.324;2023-09-19T03:41:05;98964.44;;;20.65;66.47
21236;BME280;10775;42.678;26.324;2023-09-19T03:43:34;98967.44;;;20.74;66.13
21236;BME280;10775;42.678;26.324;2023-09-19T03:46:02;98961.75;;;20.96;65.34
21236;BME280;10775;42.678;26.324;2023-09-19T03:48:31;98967.06;;;20.80;65.36
21236;BME280;10775;42.678;26.324;2023-09-19T03:50:56;98974.28;;;20.62;66.07
21236;BME280;10775;42.678;26.324;2023-09-19T03:53:22;98973.25;;;20.65;66.24
21236;BME280;10775;42.678;26.324;2023-09-19T03:55:47;98970.25;;;20.71;66.09
21236;BME280;10775;42.678;26.324;2023-09-19T03:58:13;98978.50;;;20.67;66.10
21236;BME280;10775;42.678;26.324;2023-09-19T04:00:38;98977.13;;;20.59;66.22
21236;BME280;10775;42.678;26.324;2023-09-19T04:03:04;98979.91;;;20.40;66.61
21236;BME280;10775;42.678;26.324;2023-09-19T04:05:31;98977.84;;;20.30;67.39
21236;BME280;10775;42.678;26.324;2023-09-19T04:07:58;98984.34;;;20.40;66.87
21236;BME280;10775;42.678;26.324;2023-09-19T04:10:24;98989.81;;;20.21;67.50
21236;BME280;10775;42.678;26.324;2023-09-19T04:12:53;98989.47;;;20.11;67.58
21236;BME280;10775;42.678;26.324;2023-09-19T04:15:20;98989.56;;;20.10;68.13
21236;BME280;10775;42.678;26.324;2023-09-19T04:17:51;98993.56;;;20.17;67.66
21236;BME280;10775;42.678;26.324;2023-09-19T04:20:17;98989.69;;;20.07;67.84
21236;BME280;10775;42.678;26.324;2023-09-19T04:22:43;98985.69;;;20.00;68.51
21236;BME280;10775;42.678;26.324;2023-09-19T04:25:08;98988.53;;;20.12;67.79
21236;BME280;10775;42.678;26.324;2023-09-19T04:27:34;98994.94;;;19.75;68.52
21236;BME280;10775;42.678;26.324;2023-09-19T04:30:00;98995.06;;;19.20;69.22
21236;BME280;10775;42.678;26.324;2023-09-19T04:32:30;98992.81;;;19.64;70.02
21236;BME280;10775;42.678;26.324;2023-09-19T04:34:57;98994.09;;;20.24;67.63
21236;BME280;10775;42.678;26.324;2023-09-19T04:37:25;98993.50;;;20.18;67.89
21236;BME280;10775;42.678;26.324;2023-09-19T04:39:51;98990.31;;;20.12;67.55
21236;BME280;10775;42.678;26.324;2023-09-19T04:42:16;98993.97;;;19.93;68.22
21236;BME280;10775;42.678;26.324;2023-09-19T04:44:43;98984.16;;;20.11;67.82
21236;BME280;10775;42.678;26.324;2023-09-19T04:47:08;98987.06;;;20.07;67.52
21236;BME280;10775;42.678;26.324;2023-09-19T04:49:34;98987.16;;;20.05;67.78
21236;BME280;10775;42.678;26.324;2023-09-19T04:52:00;98994.47;;;19.84;66.85
21236;BME280;10775;42.678;26.324;2023-09-19T04:54:26;98989.53;;;19.07;68.91
21236;BME280;10775;42.678;26.324;2023-09-19T04:56:52;98984.94;;;19.80;69.03
21236;BME280;10775;42.678;26.324;2023-09-19T04:59:17;98975.63;;;19.38;70.59
21236;BME280;10775;42.678;26.324;2023-09-19T05:01:43;98976.91;;;19.47;69.59
21236;BME280;10775;42.678;26.324;2023-09-19T05:04:08;98983.66;;;19.71;69.15
21236;BME280;10775;42.678;26.324;2023-09-19T05:06:34;98973.25;;;19.32;70.46
21236;BME280;10775;42.678;26.324;2023-09-19T05:09:00;98980.22;;;19.69;69.36
21236;BME280;10775;42.678;26.324;2023-09-19T05:11:26;98982.06;;;19.85;68.68
21236;BME280;10775;42.678;26.324;2023-09-19T05:13:51;98981.84;;;19.72;68.48
21236;BME280;10775;42.678;26.324;2023-09-19T05:16:18;98982.53;;;19.75;68.80
21236;BME280;10775;42.678;26.324;2023-09-19T05:18:44;98987.97;;;19.55;69.74
21236;BME280;10775;42.678;26.324;2023-09-19T05:21:09;98987.44;;;18.58;72.43
21236;BME280;10775;42.678;26.324;2023-09-19T05:23:34;98987.84;;;19.06;71.43
21236;BME280;10775;42.678;26.324;2023-09-19T05:26:00;98989.19;;;18.78;72.69
21236;BME280;10775;42.678;26.324;2023-09-19T05:28:26;98990.63;;;19.03;72.06
21236;BME280;10775;42.678;26.324;2023-09-19T05:30:52;98981.38;;;19.46;70.11
21236;BME280;10775;42.678;26.324;2023-09-19T05:33:18;98981.66;;;20.08;68.48
21236;BME280;10775;42.678;26.324;2023-09-19T05:35:44;98980.53;;;20.46;67.01
21236;BME280;10775;42.678;26.324;2023-09-19T05:38:12;98981.56;;;20.59;66.34
21236;BME280;10775;42.678;26.324;2023-09-19T05:40:39;98975.88;;;20.97;65.20
21236;BME280;10775;42.678;26.324;2023-09-19T05:43:07;98974.81;;;21.15;64.63
21236;BME280;10775;42.678;26.324;2023-09-19T05:45:33;98977.16;;;20.90;65.04
21236;BME280;10775;42.678;26.324;2023-09-19T05:48:10;98982.81;;;20.52;67.26
21236;BME280;10775;42.678;26.324;2023-09-19T05:50:37;98968.78;;;20.81;66.03
21236;BME280;10775;42.678;26.324;2023-09-19T05:53:03;98977.41;;;21.01;65.75
21236;BME280;10775;42.678;26.324;2023-09-19T05:55:30;98976.16;;;21.22;65.14
21236;BME280;10775;42.678;26.324;2023-09-19T05:57:55;98970.53;;;21.43;64.34
21236;BME280;10775;42.678;26.324;2023-09-19T06:00:22;98968.44;;;20.88;65.72
21236;BME280;10775;42.678;26.324;2023-09-19T06:05:17;98969.50;;;21.45;64.00
21236;BME280;10775;42.678;26.324;2023-09-19T06:07:42;98965.53;;;21.22;64.49
21236;BME280;10775;42.678;26.324;2023-09-19T06:10:08;98972.59;;;21.38;63.99
21236;BME280;10775;42.678;26.324;2023-09-19T06:12:38;98979.16;;;21.16;64.60
21236;BME280;10775;42.678;26.324;2023-09-19T06:15:05;98980.03;;;21.47;63.93
21236;BME280;10775;42.678;26.324;2023-09-19T06:17:31;98973.59;;;21.51;63.84
21236;BME280;10775;42.678;26.324;2023-09-19T06:19:57;98979.56;;;21.55;63.59
21236;BME280;10775;42.678;26.324;2023-09-19T06:22:22;98971.06;;;21.64;63.09
21236;BME280;10775;42.678;26.324;2023-09-19T06:24:49;98966.97;;;21.73;63.05
21236;BME280;10775;42.678;26.324;2023-09-19T06:27:15;98970.19;;;21.78;63.66
21236;BME280;10775;42.678;26.324;2023-09-19T06:29:40;98964.13;;;22.04;62.90
21236;BME280;10775;42.678;26.324;2023-09-19T06:32:07;98971.16;;;22.05;62.86
21236;BME280;10775;42.678;26.324;2023-09-19T06:34:34;98969.44;;;22.04;62.95
21236;BME280;10775;42.678;26.324;2023-09-19T06:36:59;98979.69;;;22.10;62.87
21236;BME280;10775;42.678;26.324;2023-09-19T06:39:25;98977.16;;;22.09;62.85
21236;BME280;10775;42.678;26.324;2023-09-19T06:41:51;98969.25;;;22.07;62.76
21236;BME280;10775;42.678;26.324;2023-09-19T06:44:19;98971.53;;;22.13;62.90
21236;BME280;10775;42.678;26.324;2023-09-19T06:46:47;98963.66;;;22.12;63.15
21236;BME280;10775;42.678;26.324;2023-09-19T06:49:15;98972.81;;;22.64;62.02
21236;BME280;10775;42.678;26.324;2023-09-19T06:54:08;98970.63;;;25.01;54.26
21236;BME280;10775;42.678;26.324;2023-09-19T06:56:33;98972.06;;;25.05;54.49
21236;BME280;10775;42.678;26.324;2023-09-19T06:58:59;98957.47;;;25.22;53.87
21236;BME280;10775;42.678;26.324;2023-09-19T07:01:25;98962.50;;;25.49;53.73
21236;BME280;10775;42.678;26.324;2023-09-19T07:03:51;98960.06;;;26.15;52.17
21236;BME280;10775;42.678;26.324;2023-09-19T07:06:18;98961.75;;;26.38;51.63
21236;BME280;10775;42.678;26.324;2023-09-19T07:08:43;98960.50;;;26.65;50.82
21236;BME280;10775;42.678;26.324;2023-09-19T07:11:10;98968.13;;;26.92;50.29
21236;BME280;10775;42.678;26.324;2023-09-19T07:13:38;98961.19;;;27.22;49.83
21236;BME280;10775;42.678;26.324;2023-09-19T07:16:04;98958.38;;;27.12;46.10
21236;BME280;10775;42.678;26.324;2023-09-19T07:18:30;98959.78;;;26.74;47.47
21236;BME280;10775;42.678;26.324;2023-09-19T07:20:58;98968.56;;;25.86;49.30
21236;BME280;10775;42.678;26.324;2023-09-19T07:23:30;98964.19;;;26.41;46.67
21236;BME280;10775;42.678;26.324;2023-09-19T07:26:00;98958.78;;;27.40;48.80
21236;BME280;10775;42.678;26.324;2023-09-19T07:28:26;98952.75;;;27.26;47.54
21236;BME280;10775;42.678;26.324;2023-09-19T07:30:52;98956.44;;;27.46;49.19
21236;BME280;10775;42.678;26.324;2023-09-19T07:33:17;98953.34;;;27.72;48.03
21236;BME280;10775;42.678;26.324;2023-09-19T07:35:48;98947.72;;;27.54;48.39
21236;BME280;10775;42.678;26.324;2023-09-19T07:38:13;98957.97;;;27.91;47.83
21236;BME280;10775;42.678;26.324;2023-09-19T07:40:41;98948.88;;;27.19;49.10
21236;BME280;10775;42.678;26.324;2023-09-19T07:43:06;98939.56;;;27.02;49.43
21236;BME280;10775;42.678;26.324;2023-09-19T07:45:32;98939.72;;;27.43;48.62
21236;BME280;10775;42.678;26.324;2023-09-19T07:47:58;98943.56;;;27.71;47.37
21236;BME280;10775;42.678;26.324;2023-09-19T07:50:24;98941.47;;;27.32;46.08
21236;BME280;10775;42.678;26.324;2023-09-19T07:52:52;98932.66;;;27.21;45.88
21236;BME280;10775;42.678;26.324;2023-09-19T07:55:18;98938.94;;;27.52;47.25
21236;BME280;10775;42.678;26.324;2023-09-19T07:57:45;98937.28;;;28.12;45.87
21236;BME280;10775;42.678;26.324;2023-09-19T08:00:12;98942.28;;;28.27;45.40
21236;BME280;10775;42.678;26.324;2023-09-19T08:02:38;98938.19;;;27.92;46.06
21236;BME280;10775;42.678;26.324;2023-09-19T08:05:04;98934.84;;;28.00;45.86
21236;BME280;10775;42.678;26.324;2023-09-19T08:07:40;98931.19;;;27.80;46.29
21236;BME280;10775;42.678;26.324;2023-09-19T08:10:06;98932.88;;;28.11;45.26
21236;BME280;10775;42.678;26.324;2023-09-19T08:12:33;98928.03;;;28.36;44.49
21236;BME280;10775;42.678;26.324;2023-09-19T08:15:01;98926.59;;;27.70;46.24
21236;BME280;10775;42.678;26.324;2023-09-19T08:17:27;98920.47;;;27.38;46.40
21236;BME280;10775;42.678;26.324;2023-09-19T08:19:52;98921.06;;;27.41;46.03
21236;BME280;10775;42.678;26.324;2023-09-19T08:22:21;98910.00;;;27.35;47.24
21236;BME280;10775;42.678;26.324;2023-09-19T08:24:48;98911.03;;;27.22;47.33
21236;BME280;10775;42.678;26.324;2023-09-19T08:27:14;98904.78;;;27.01;48.10
21236;BME280;10775;42.678;26.324;2023-09-19T08:29:40;98907.28;;;27.77;46.36
21236;BME280;10775;42.678;26.324;2023-09-19T08:32:07;98906.69;;;27.73;45.87
21236;BME280;10775;42.678;26.324;2023-09-19T08:34:33;98905.66;;;27.64;45.82
21236;BME280;10775;42.678;26.324;2023-09-19T08:36:59;98905.59;;;27.54;46.59
21236;BME280;10775;42.678;26.324;2023-09-19T08:39:25;98900.47;;;27.21;43.51
21236;BME280;10775;42.678;26.324;2023-09-19T08:42:01;98894.38;;;27.19;46.58
21236;BME280;10775;42.678;26.324;2023-09-19T08:44:28;98909.53;;;27.50;46.20
21236;BME280;10775;42.678;26.324;2023-09-19T08:47:01;98889.78;;;26.77;47.52
21236;BME280;10775;42.678;26.324;2023-09-19T08:49:39;98897.78;;;27.21;47.02
21236;BME280;10775;42.678;26.324;2023-09-19T08:52:27;98894.28;;;27.51;46.44
21236;BME280;10775;42.678;26.324;2023-09-19T08:54:58;98903.53;;;27.68;45.32
21236;BME280;10775;42.678;26.324;2023-09-19T08:57:28;98896.69;;;27.12;46.94
21236;BME280;10775;42.678;26.324;2023-09-19T08:59:55;98897.00;;;26.98;45.17
21236;BME280;10775;42.678;26.324;2023-09-19T09:02:22;98896.66;;;27.23;45.53
21236;BME280;10775;42.678;26.324;2023-09-19T09:04:50;98887.78;;;27.11;47.24
21236;BME280;10775;42.678;26.324;2023-09-19T09:07:16;98888.16;;;27.18;47.17
21236;BME280;10775;42.678;26.324;2023-09-19T09:09:42;98880.19;;;26.96;47.21
21236;BME280;10775;42.678;26.324;2023-09-19T09:12:12;98892.47;;;26.77;47.71
21236;BME280;10775;42.678;26.324;2023-09-19T09:14:47;98880.44;;;26.72;47.23
21236;BME280;10775;42.678;26.324;2023-09-19T09:17:16;98877.59;;;27.05;47.14
21236;BME280;10775;42.678;26.324;2023-09-19T09:19:48;98872.72;;;26.99;47.29
21236;BME280;10775;42.678;26.324;2023-09-19T09:22:13;98884.34;;;26.01;49.76
21236;BME280;10775;42.678;26.324;2023-09-19T09:24:56;98878.50;;;25.96;50.31
21236;BME280;10775;42.678;26.324;2023-09-19T09:27:29;98878.22;;;25.66;51.11
21236;BME280;10775;42.678;26.324;2023-09-19T09:29:54;98872.38;;;25.38;51.92
21236;BME280;10775;42.678;26.324;2023-09-19T09:32:21;98871.09;;;25.89;50.94
21236;BME280;10775;42.678;26.324;2023-09-19T09:34:50;98872.41;;;25.94;50.55
21236;BME280;10775;42.678;26.324;2023-09-19T09:37:17;98867.25;;;26.25;50.23
21236;BME280;10775;42.678;26.324;2023-09-19T09:40:09;98864.38;;;25.49;52.10
21236;BME280;10775;42.678;26.324;2023-09-19T09:42:40;98872.66;;;25.80;51.46
21236;BME280;10775;42.678;26.324;2023-09-19T09:45:23;98874.91;;;26.30;50.05
21236;BME280;10775;42.678;26.324;2023-09-19T09:48:14;98860.03;;;26.80;48.41
21236;BME280;10775;42.678;26.324;2023-09-19T09:50:47;98866.56;;;26.66;49.41
21236;BME280;10775;42.678;26.324;2023-09-19T09:56:01;98857.81;;;26.53;49.98
21236;BME280;10775;42.678;26.324;2023-09-19T09:58:27;98845.97;;;26.88;48.33
21236;BME280;10775;42.678;26.324;2023-09-19T10:00:58;98854.22;;;26.32;49.51
21236;BME280;10775;42.678;26.324;2023-09-19T10:03:40;98853.22;;;26.33;49.47
21236;BME280;10775;42.678;26.324;2023-09-19T10:06:13;98842.31;;;26.89;48.57
21236;BME280;10775;42.678;26.324;2023-09-19T10:09:07;98844.31;;;26.76;48.28
21236;BME280;10775;42.678;26.324;2023-09-19T10:14:12;98850.38;;;26.57;49.09
21236;BME280;10775;42.678;26.324;2023-09-19T10:16:46;98842.28;;;26.36;49.50
21236;BME280;10775;42.678;26.324;2023-09-19T10:19:22;98843.56;;;26.53;49.03
21236;BME280;10775;42.678;26.324;2023-09-19T10:21:50;98842.75;;;26.41;48.86
21236;BME280;10775;42.678;26.324;2023-09-19T10:24:16;98836.13;;;26.56;49.52
21236;BME280;10775;42.678;26.324;2023-09-19T10:26:43;98840.28;;;26.49;48.49
21236;BME280;10775;42.678;26.324;2023-09-19T10:29:13;98825.88;;;26.61;50.01
21236;BME280;10775;42.678;26.324;2023-09-19T10:31:39;98831.72;;;26.87;47.10
21236;BME280;10775;42.678;26.324;2023-09-19T10:34:13;98827.31;;;26.33;50.02
21236;BME280;10775;42.678;26.324;2023-09-19T10:36:42;98831.78;;;26.33;52.41
21236;BME280;10775;42.678;26.324;2023-09-19T10:39:10;98821.63;;;26.48;50.66
21236;BME280;10775;42.678;26.324;2023-09-19T10:41:37;98827.00;;;27.01;50.27
21236;BME280;10775;42.678;26.324;2023-09-19T10:44:04;98813.66;;;27.31;47.92
21236;BME280;10775;42.678;26.324;2023-09-19T10:46:33;98812.03;;;27.50;47.60
21236;BME280;10775;42.678;26.324;2023-09-19T10:49:02;98804.94;;;27.39;48.56
21236;BME280;10775;42.678;26.324;2023-09-19T10:51:38;98803.50;;;27.35;47.57
21236;BME280;10775;42.678;26.324;2023-09-19T10:54:08;98800.72;;;26.95;47.94
21236;BME280;10775;42.678;26.324;2023-09-19T10:56:42;98802.81;;;26.70;47.38
21236;BME280;10775;42.678;26.324;2023-09-19T10:59:09;98798.16;;;26.40;50.48
21236;BME280;10775;42.678;26.324;2023-09-19T11:01:52;98798.34;;;26.48;51.09
21236;BME280;10775;42.678;26.324;2023-09-19T11:07:17;98784.63;;;26.41;49.54
21236;BME280;10775;42.678;26.324;2023-09-19T11:09:53;98785.06;;;26.26;50.87
21236;BME280;10775;42.678;26.324;2023-09-19T11:14:57;98777.91;;;26.79;46.97
21236;BME280;10775;42.678;26.324;2023-09-19T11:17:33;98779.59;;;26.80;47.06
21236;BME280;10775;42.678;26.324;2023-09-19T11:30:49;98774.75;;;26.74;49.83
21236;BME280;10775;42.678;26.324;2023-09-19T11:33:28;98770.25;;;26.54;49.90
21236;BME280;10775;42.678;26.324;2023-09-19T11:43:51;98764.56;;;25.81;50.27
21236;BME280;10775;42.678;26.324;2023-09-19T11:46:18;98755.81;;;26.22;51.34
21236;BME280;10775;42.678;26.324;2023-09-19T11:48:50;98754.16;;;26.42;48.87
21236;BME280;10775;42.678;26.324;2023-09-19T11:51:23;98749.75;;;26.74;50.04
21236;BME280;10775;42.678;26.324;2023-09-19T11:53:57;98743.66;;;26.93;46.95
21236;BME280;10775;42.678;26.324;2023-09-19T11:56:26;98743.00;;;27.00;47.86
21236;BME280;10775;42.678;26.324;2023-09-19T11:58:57;98746.25;;;27.04;49.91
21236;BME280;10775;42.678;26.324;2023-09-19T12:01:33;98740.31;;;27.00;47.64
21236;BME280;10775;42.678;26.324;2023-09-19T12:03:59;98731.78;;;26.85;51.39
21236;BME280;10775;42.678;26.324;2023-09-19T12:06:26;98730.47;;;26.80;45.50
21236;BME280;10775;42.678;26.324;2023-09-19T12:08:52;98732.88;;;26.83;45.74
21236;BME280;10775;42.678;26.324;2023-09-19T12:11:20;98725.03;;;26.91;44.25
21236;BME280;10775;42.678;26.324;2023-09-19T12:13:47;98727.59;;;26.93;44.42
21236;BME280;10775;42.678;26.324;2023-09-19T12:16:18;98726.63;;;27.03;47.21
21236;BME280;10775;42.678;26.324;2023-09-19T12:18:47;98723.97;;;27.03;43.86
21236;BME280;10775;42.678;26.324;2023-09-19T12:21:41;98709.75;;;27.43;48.08
21236;BME280;10775;42.678;26.324;2023-09-19T12:24:13;98703.94;;;27.48;47.12
21236;BME280;10775;42.678;26.324;2023-09-19T12:26:43;98702.69;;;27.52;43.57
21236;BME280;10775;42.678;26.324;2023-09-19T12:29:15;98704.63;;;27.09;43.41
21236;BME280;10775;42.678;26.324;2023-09-19T12:31:56;98703.72;;;26.68;47.52
21236;BME280;10775;42.678;26.324;2023-09-19T12:34:30;98708.97;;;27.01;48.49
21236;BME280;10775;42.678;26.324;2023-09-19T12:37:13;98700.09;;;27.31;43.63
21236;BME280;10775;42.678;26.324;2023-09-19T12:40:07;98705.25;;;27.53;45.14
21236;BME280;10775;42.678;26.324;2023-09-19T12:42:44;98698.25;;;27.01;42.21
21236;BME280;10775;42.678;26.324;2023-09-19T12:45:10;98696.59;;;26.58;42.50
21236;BME280;10775;42.678;26.324;2023-09-19T12:47:39;98695.28;;;26.73;49.86
21236;BME280;10775;42.678;26.324;2023-09-19T12:50:15;98684.97;;;27.30;42.34
21236;BME280;10775;42.678;26.324;2023-09-19T12:52:52;98680.03;;;27.35;47.38
21236;BME280;10775;42.678;26.324;2023-09-19T12:55:23;98679.53;;;27.51;41.88
21236;BME280;10775;42.678;26.324;2023-09-19T12:58:14;98668.63;;;27.12;43.75
21236;BME280;10775;42.678;26.324;2023-09-19T13:00:44;98671.16;;;27.04;47.62
21236;BME280;10775;42.678;26.324;2023-09-19T13:03:14;98673.38;;;26.99;46.14
21236;BME280;10775;42.678;26.324;2023-09-19T13:05:57;98665.34;;;26.68;42.69
21236;BME280;10775;42.678;26.324;2023-09-19T13:08:33;98671.44;;;26.70;44.33
21236;BME280;10775;42.678;26.324;2023-09-19T13:11:12;98666.50;;;26.75;43.31
21236;BME280;10775;42.678;26.324;2023-09-19T13:14:19;98665.88;;;26.41;43.13
21236;BME280;10775;42.678;26.324;2023-09-19T13:19:39;98662.59;;;26.58;48.02
21236;BME280;10775;42.678;26.324;2023-09-19T13:22:36;98659.19;;;26.77;42.73
21236;BME280;10775;42.678;26.324;2023-09-19T13:25:04;98655.78;;;26.75;49.71
21236;BME280;10775;42.678;26.324;2023-09-19T13:27:32;98646.84;;;26.44;42.54
21236;BME280;10775;42.678;26.324;2023-09-19T13:29:58;98660.72;;;26.28;42.36
21236;BME280;10775;42.678;26.324;2023-09-19T13:32:23;98658.88;;;26.50;46.22
21236;BME280;10775;42.678;26.324;2023-09-19T13:34:49;98650.75;;;26.40;49.86
21236;BME280;10775;42.678;26.324;2023-09-19T13:37:16;98655.66;;;26.56;51.62
21236;BME280;10775;42.678;26.324;2023-09-19T13:39:43;98650.31;;;26.35;41.55
21236;BME280;10775;42.678;26.324;2023-09-19T13:42:13;98655.63;;;26.46;50.39
21236;BME280;10775;42.678;26.324;2023-09-19T13:44:38;98654.25;;;26.31;42.39
21236;BME280;10775;42.678;26.324;2023-09-19T13:47:06;98650.59;;;26.53;49.62
21236;BME280;10775;42.678;26.324;2023-09-19T13:49:35;98645.22;;;26.32;47.44
21236;BME280;10775;42.678;26.324;2023-09-19T13:52:01;98657.75;;;26.31;42.08
21236;BME280;10775;42.678;26.324;2023-09-19T13:54:29;98654.03;;;26.43;41.97